Time;durP1;ratioP1;P1;durP2;ratioP2;P2;SDS_P1;SDS_P2;PMS_P1;PMS_P2;Temp;Humidity;BMP_temperature;BMP_pressure;BME280_temperature;BME280_humidity;BME280_pressure;Samples;Min_cycle;Max_cycle;Signal;HPM_P1;HPM_P2
2022/06/23 00:01:44;;;;;;;;;;;20.10;99.90;;;;;;8356375;28;19920;-73
2022/06/23 00:16:14;;;;;;;;;;;19.90;99.90;;;;;;8349055;28;20260;-73
2022/06/23 00:20:22;;;;;;;;;;;19.90;99.90;;;;;;8340983;28;19930;-73
2022/06/23 00:24:25;;;;;;;;;;;19.90;99.90;;;;;;8350394;28;20695;-73
2022/06/23 00:28:29;;;;;;;;;;;19.90;99.90;;;;;;8344683;28;20387;-73
2022/06/23 00:32:31;;;;;;;;;;;19.80;99.90;;;;;;8357764;28;19928;-73
2022/06/23 00:41:37;;;;;;;;;;;19.70;99.90;;;;;;8354984;28;19923;-73
2022/06/23 00:45:48;;;;;;;;;;;19.70;99.90;;;;;;8327159;28;19921;-73
2022/06/23 00:49:53;;;;;;;;;;;19.70;99.90;;;;;;8328618;28;19932;-73
2022/06/23 00:54:13;;;;;;;;;;;19.60;99.90;;;;;;8356166;28;19921;-73
2022/06/23 00:58:18;;;;;;;;;;;19.60;99.90;;;;;;8353310;28;20264;-73
2022/06/23 01:02:23;;;;;;;;;;;19.50;99.90;;;;;;8357393;28;19920;-73
2022/06/23 01:06:25;;;;;;;;;;;19.50;99.90;;;;;;8356777;28;19924;-73
2022/06/23 01:10:40;;;;;;;;;;;19.40;99.90;;;;;;8363579;28;19925;-73
2022/06/23 01:14:47;;;;;;;;;;;19.40;99.90;;;;;;8341204;28;19944;-73
2022/06/23 01:18:52;;;;;;;;;;;19.30;99.90;;;;;;8340062;28;19932;-73
2022/06/23 01:22:59;;;;;;;;;;;19.30;99.90;;;;;;8333029;28;19925;-73
2022/06/23 01:27:01;;;;;;;;;;;19.20;99.90;;;;;;8325245;28;20239;-73
2022/06/23 01:31:12;;;;;;;;;;;19.20;99.90;;;;;;8348954;28;20019;-73
2022/06/23 01:35:16;;;;;;;;;;;19.10;99.90;;;;;;8351546;28;19971;-73
2022/06/23 01:39:21;;;;;;;;;;;19.10;99.90;;;;;;8340295;28;19931;-73
2022/06/23 01:43:25;;;;;;;;;;;19.00;99.90;;;;;;8364244;28;19920;-73
2022/06/23 01:47:30;;;;;;;;;;;18.90;99.90;;;;;;8329924;28;19924;-73
2022/06/23 01:51:38;;;;;;;;;;;18.90;99.90;;;;;;8318239;28;20047;-73
2022/06/23 01:56:09;;;;;;;;;;;18.90;99.90;;;;;;8333986;28;19921;-73
2022/06/23 02:00:19;;;;;;;;;;;18.80;99.90;;;;;;8335433;28;19920;-73
2022/06/23 02:04:21;;;;;;;;;;;18.80;99.90;;;;;;8334323;28;20277;-73
2022/06/23 02:08:22;;;;;;;;;;;18.70;99.90;;;;;;8325048;28;19929;-73
2022/06/23 02:12:33;;;;;;;;;;;18.60;99.90;;;;;;8348410;28;19929;-74
2022/06/23 02:16:45;;;;;;;;;;;18.60;99.90;;;;;;8352378;28;19925;-73
2022/06/23 02:20:52;;;;;;;;;;;18.50;99.90;;;;;;8327820;28;20376;-73
2022/06/23 02:25:12;;;;;;;;;;;18.50;99.90;;;;;;8343007;28;19940;-73
2022/06/23 02:29:27;;;;;;;;;;;18.50;99.90;;;;;;8331672;28;19928;-73
2022/06/23 02:33:38;;;;;;;;;;;18.50;99.90;;;;;;8337779;28;19982;-73
2022/06/23 02:37:52;;;;;;;;;;;18.40;99.90;;;;;;8333529;28;19937;-73
2022/06/23 02:41:55;;;;;;;;;;;18.40;99.90;;;;;;8343600;28;20368;-73
2022/06/23 02:46:00;;;;;;;;;;;18.50;99.90;;;;;;8369842;28;19925;-73
2022/06/23 02:50:19;;;;;;;;;;;18.40;99.90;;;;;;8361595;28;19967;-73
2022/06/23 02:54:30;;;;;;;;;;;18.40;99.90;;;;;;8360047;28;19971;-73
2022/06/23 02:58:40;;;;;;;;;;;18.40;99.90;;;;;;8343861;28;19944;-73
2022/06/23 03:02:56;;;;;;;;;;;18.30;99.90;;;;;;8366615;28;19927;-73
2022/06/23 03:07:17;;;;;;;;;;;18.30;99.90;;;;;;8365741;28;19931;-73
2022/06/23 03:11:51;;;;;;;;;;;18.20;99.90;;;;;;8335658;28;19925;-73
2022/06/23 03:15:49;;;;;;;;;;;18.20;99.90;;;;;;8351715;28;20272;-73
2022/06/23 03:20:03;;;;;;;;;;;18.10;99.90;;;;;;8346717;28;20011;-73
2022/06/23 03:24:14;;;;;;;;;;;18.10;99.90;;;;;;8351880;28;19928;-73
2022/06/23 03:28:35;;;;;;;;;;;18.00;99.90;;;;;;8353081;28;19921;-73
2022/06/23 03:32:42;;;;;;;;;;;18.00;99.90;;;;;;8364379;28;19925;-73
2022/06/23 03:36:47;;;;;;;;;;;18.00;99.90;;;;;;8344706;28;19920;-73
2022/06/23 03:45:58;;;;;;;;;;;17.90;99.90;;;;;;8361764;28;20306;-73
2022/06/23 03:50:06;;;;;;;;;;;17.90;99.90;;;;;;8343254;28;19921;-73
2022/06/23 03:54:14;;;;;;;;;;;17.90;99.90;;;;;;8348757;28;19928;-72
2022/06/23 03:58:21;;;;;;;;;;;17.90;99.90;;;;;;8359374;28;19921;-73
2022/06/23 04:02:25;;;;;;;;;;;17.90;99.90;;;;;;8365795;28;19921;-72
2022/06/23 04:06:30;;;;;;;;;;;17.90;99.90;;;;;;8349154;28;20852;-72
2022/06/23 04:10:41;;;;;;;;;;;18.00;99.90;;;;;;8365976;28;19935;-73
2022/06/23 04:14:55;;;;;;;;;;;18.10;99.90;;;;;;8358382;28;19928;-73
2022/06/23 04:18:57;;;;;;;;;;;18.10;99.90;;;;;;8351395;28;19928;-72
2022/06/23 04:23:02;;;;;;;;;;;18.10;99.90;;;;;;8342174;28;19927;-72
2022/06/23 04:27:06;;;;;;;;;;;18.20;99.90;;;;;;8342431;28;19927;-73
2022/06/23 04:31:08;;;;;;;;;;;18.20;99.90;;;;;;8351620;28;19920;-72
2022/06/23 04:35:14;;;;;;;;;;;18.30;99.90;;;;;;8354356;28;20298;-73
2022/06/23 04:39:18;;;;;;;;;;;18.30;99.90;;;;;;8328391;28;19936;-72
2022/06/23 04:43:23;;;;;;;;;;;18.30;99.90;;;;;;8333121;28;19928;-72
2022/06/23 04:47:27;;;;;;;;;;;18.30;99.90;;;;;;8343837;28;20007;-73
2022/06/23 04:51:37;;;;;;;;;;;18.40;99.90;;;;;;8359270;28;19932;-72
2022/06/23 05:05:53;;;;;;;;;;;18.50;99.90;;;;;;8379282;28;20178;-73
2022/06/23 05:10:03;;;;;;;;;;;18.50;99.90;;;;;;8369309;28;19951;-72
2022/06/23 05:14:11;;;;;;;;;;;18.60;99.90;;;;;;8349710;28;19921;-73
2022/06/23 05:18:20;;;;;;;;;;;18.60;99.90;;;;;;8349580;28;19928;-73
2022/06/23 05:22:24;;;;;;;;;;;18.70;99.90;;;;;;8368746;28;20371;-72
2022/06/23 05:26:30;;;;;;;;;;;18.80;99.90;;;;;;8359503;28;19920;-72
2022/06/23 05:30:39;;;;;;;;;;;18.90;99.90;;;;;;8378415;28;19920;-73
2022/06/23 05:34:47;;;;;;;;;;;18.90;99.90;;;;;;8363600;28;19927;-73
2022/06/23 05:38:50;;;;;;;;;;;19.00;99.90;;;;;;8353689;28;19925;-73
2022/06/23 05:42:55;;;;;;;;;;;19.10;99.90;;;;;;8358327;28;19920;-73
2022/06/23 05:47:00;;;;;;;;;;;19.10;99.90;;;;;;8351342;28;19924;-73
2022/06/23 05:51:07;;;;;;;;;;;19.20;99.90;;;;;;8370595;28;20547;-73
2022/06/23 05:55:18;;;;;;;;;;;19.30;99.90;;;;;;8365603;28;19947;-72
2022/06/23 05:59:20;;;;;;;;;;;19.40;99.90;;;;;;8360098;28;19925;-73
2022/06/23 06:03:25;;;;;;;;;;;19.50;99.90;;;;;;8353368;28;19920;-73
2022/06/23 06:07:31;;;;;;;;;;;19.60;99.90;;;;;;8363054;28;19932;-73
2022/06/23 06:11:33;;;;;;;;;;;19.70;99.90;;;;;;8328696;28;19921;-73
2022/06/23 06:15:39;;;;;;;;;;;19.70;99.90;;;;;;8348926;28;19921;-73
2022/06/23 06:19:44;;;;;;;;;;;19.80;99.90;;;;;;8378526;28;19944;-73
2022/06/23 06:23:59;;;;;;;;;;;19.90;99.90;;;;;;8387323;28;19921;-73
2022/06/23 06:28:18;;;;;;;;;;;20.10;99.90;;;;;;8377627;28;19921;-73
2022/06/23 06:32:34;;;;;;;;;;;20.20;99.90;;;;;;8368474;28;19928;-72
2022/06/23 06:36:39;;;;;;;;;;;20.30;99.90;;;;;;8376704;28;19920;-73
2022/06/23 06:40:42;;;;;;;;;;;20.50;99.90;;;;;;8377255;28;19959;-73
2022/06/23 06:44:45;;;;;;;;;;;20.60;99.90;;;;;;8363745;28;19932;-73
2022/06/23 06:48:47;;;;;;;;;;;20.70;99.90;;;;;;8334671;28;20279;-73
2022/06/23 06:52:49;;;;;;;;;;;20.80;99.90;;;;;;8332671;28;19925;-73
2022/06/23 06:56:54;;;;;;;;;;;20.90;99.90;;;;;;8328954;28;19921;-72
2022/06/23 07:00:58;;;;;;;;;;;21.10;99.90;;;;;;8326957;28;19921;-72
2022/06/23 07:05:06;;;;;;;;;;;21.20;99.90;;;;;;8329393;28;20300;-73
2022/06/23 07:09:17;;;;;;;;;;;21.30;99.90;;;;;;8329413;28;19925;-73
2022/06/23 07:19:34;;;;;;;7.10;3.10;;;21.60;99.90;;;;;;8330659;28;20051;-73
2022/06/23 07:34:54;;;;;;;7.03;3.25;;;21.80;99.90;;;;;;8327964;28;20393;-72
2022/06/23 07:39:20;;;;;;;8.68;4.20;;;21.90;99.90;;;;;;8322346;28;20080;-72
2022/06/23 07:44:08;;;;;;;7.35;3.40;;;22.00;99.90;;;;;;8340574;28;20080;-72
2022/06/23 07:48:09;;;;;;;5.57;3.10;;;22.00;99.90;;;;;;8225052;28;20056;-72
2022/06/23 07:52:17;;;;;;;6.45;3.20;;;22.10;99.90;;;;;;8323013;28;20400;-72
2022/06/23 07:56:26;;;;;;;6.75;4.03;;;22.20;99.90;;;;;;8338864;28;20064;-72
2022/06/23 08:00:30;;;;;;;4.88;3.17;;;22.30;99.90;;;;;;8305555;28;20042;-72
2022/06/23 08:04:49;;;;;;;8.75;4.55;;;22.30;99.90;;;;;;8331213;28;20045;-72
2022/06/23 08:08:55;;;;;;;6.65;4.50;;;22.40;99.90;;;;;;8321791;28;20041;-72
2022/06/23 08:13:07;;;;;;;7.30;4.35;;;22.50;99.90;;;;;;8318173;28;20139;-72
2022/06/23 08:17:13;;;;;;;7.20;3.88;;;22.50;99.90;;;;;;8328425;28;20107;-73
2022/06/23 08:21:31;;;;;;;7.07;4.32;;;22.60;99.90;;;;;;8326172;28;20049;-72
2022/06/23 08:25:34;;;;;;;7.43;3.83;;;22.70;99.90;;;;;;8327063;28;20107;-73
2022/06/23 08:29:47;;;;;;;7.85;3.47;;;22.80;99.90;;;;;;8327249;28;20140;-73
2022/06/23 08:33:49;;;;;;;6.30;3.70;;;22.80;99.90;;;;;;8327624;28;20511;-73
2022/06/23 08:37:59;;;;;;;6.28;3.83;;;23.00;99.90;;;;;;8324611;28;20411;-73
2022/06/23 08:42:42;;;;;;;6.77;4.03;;;23.00;99.90;;;;;;8322241;28;20049;-73
2022/06/23 08:47:19;;;;;;;;;;;23.20;99.90;;;;;;8323057;28;20285;-72
2022/06/23 08:51:30;;;;;;;;;;;23.20;99.90;;;;;;8228339;28;25059;-73
2022/06/23 08:55:32;;;;;;;;;;;23.30;99.90;;;;;;8325232;28;20347;-73
2022/06/23 09:00:05;;;;;;;;;;;23.40;99.90;;;;;;8327843;28;25063;-73
2022/06/23 09:04:11;;;;;;;;;;;23.50;99.90;;;;;;8324149;28;19925;-73
2022/06/23 09:08:20;;;;;;;;;;;23.60;99.90;;;;;;8327263;28;19932;-72
2022/06/23 09:12:46;;;;;;;;;;;23.70;99.90;;;;;;8325679;28;19948;-73
2022/06/23 09:16:47;;;;;;;;;;;23.70;99.90;;;;;;8323782;28;19925;-73
2022/06/23 09:20:49;;;;;;;;;;;23.80;99.90;;;;;;8323457;28;24140;-72
2022/06/23 09:25:37;;;;;;;;;;;23.90;99.90;;;;;;8323068;28;25285;-73
2022/06/23 09:29:38;;;;;;;;;;;24.00;99.90;;;;;;8326034;28;20210;-73
2022/06/23 09:34:01;;;;;;;;;;;24.20;99.90;;;;;;8325257;28;19921;-73
2022/06/23 09:38:12;;;;;;;;;;;24.30;99.90;;;;;;8317424;28;19925;-72
2022/06/23 09:42:32;;;;;;;;;;;24.40;99.90;;;;;;8323243;28;19932;-73
2022/06/23 09:46:35;;;;;;;;;;;24.50;99.90;;;;;;8325223;28;19951;-73
2022/06/23 09:50:55;;;;;;;;;;;24.50;99.90;;;;;;8330484;28;19936;-73
2022/06/23 09:55:19;;;;;;;;;;;24.60;99.90;;;;;;8334508;28;20357;-73
2022/06/23 09:59:40;;;;;;;;;;;24.70;99.90;;;;;;8331218;28;25063;-73
2022/06/23 10:14:07;;;;;;;;;;;24.90;99.90;;;;;;8332320;28;19920;-73
2022/06/23 10:18:10;;;;;;;;;;;25.00;99.90;;;;;;8330691;28;20391;-73
2022/06/23 10:22:31;;;;;;;;;;;25.10;99.90;;;;;;8331539;28;19928;-72
2022/06/23 10:26:39;;;;;;;;;;;25.20;99.90;;;;;;8331285;28;19928;-73
2022/06/23 10:30:53;;;;;;;;;;;25.20;99.90;;;;;;8331008;28;19925;-72
2022/06/23 10:35:13;;;;;;;;;;;25.40;99.90;;;;;;8313329;28;19925;-73
2022/06/23 10:39:30;;;;;;;;;;;25.40;99.90;;;;;;8324286;28;19925;-73
2022/06/23 10:43:51;;;;;;;;;;;25.50;99.90;;;;;;8328931;28;20324;-73
2022/06/23 10:48:11;;;;;;;;;;;25.60;99.90;;;;;;8332960;28;20408;-73
2022/06/23 10:52:12;;;;;;;;;;;25.70;99.90;;;;;;8313552;28;20299;-72
2022/06/23 10:56:17;;;;;;;;;;;25.80;99.90;;;;;;8313478;28;19936;-73
2022/06/23 11:00:20;;;;;;;;;;;25.90;99.90;;;;;;8327886;28;19921;-73
2022/06/23 11:04:34;;;;;;;;;;;26.00;99.90;;;;;;8311763;28;20387;-72
2022/06/23 11:09:00;;;;;;;;;;;26.10;99.90;;;;;;8334895;28;19932;-73
2022/06/23 11:13:12;;;;;;;;;;;26.10;99.90;;;;;;8327845;28;24075;-73
2022/06/23 11:17:30;;;;;;;;;;;26.30;99.90;;;;;;8329033;28;19951;-72
2022/06/23 11:21:38;;;;;;;;;;;26.30;99.90;;;;;;8310860;28;19921;-72
2022/06/23 11:25:40;;;;;;;;;;;26.30;99.90;;;;;;8332210;28;19925;-73
2022/06/23 11:30:00;;;;;;;;;;;26.50;99.90;;;;;;8330387;28;20236;-73
2022/06/23 11:34:01;;;;;;;;;;;26.60;99.90;;;;;;8326293;28;20320;-73
2022/06/23 11:38:15;;;;;;;;;;;26.70;99.90;;;;;;8326712;28;19921;-72
2022/06/23 11:53:14;;;;;;;;;;;27.00;99.90;;;;;;8328956;28;20374;-73
2022/06/23 11:57:35;;;;;;;;;;;27.20;99.90;;;;;;8326383;28;19940;-73
2022/06/23 12:01:36;;;;;;;;;;;27.20;99.90;;;;;;8328424;28;19928;-73
2022/06/23 12:05:43;;;;;;;;;;;27.20;99.90;;;;;;8326886;28;20289;-73
2022/06/23 12:09:54;;;;;;;;;;;27.30;99.90;;;;;;8327581;28;19921;-73
2022/06/23 12:13:57;;;;;;;;;;;27.30;99.90;;;;;;8321091;28;19936;-73
2022/06/23 12:18:01;;;;;;;;;;;27.40;99.90;;;;;;8327060;28;19921;-73
2022/06/23 12:22:38;;;;;;;;;;;27.40;99.90;;;;;;8327493;28;25064;-73
2022/06/23 12:26:49;;;;;;;;;;;27.40;99.90;;;;;;8246402;28;19944;-73
2022/06/23 12:36:06;;;;;;;;;;;27.40;99.90;;;;;;8326749;28;24103;-73
2022/06/23 12:40:17;;;;;;;;;;;27.40;99.90;;;;;;8324935;28;19954;-73
2022/06/23 12:44:18;;;;;;;;;;;27.40;99.90;;;;;;8326791;28;20375;-73
2022/06/23 12:48:23;;;;;;;;;;;27.40;99.90;;;;;;8328404;28;19948;-73
2022/06/23 12:52:33;;;;;;;;;;;27.40;99.90;;;;;;8323942;28;25129;-73
2022/06/23 12:56:38;;;;;;;;;;;27.40;99.90;;;;;;8324245;28;19936;-72
2022/06/23 13:00:51;;;;;;;;;;;27.50;99.90;;;;;;8326066;28;25072;-72
2022/06/23 13:04:58;;;;;;;;;;;27.70;99.90;;;;;;8325019;28;20391;-73
2022/06/23 13:08:59;;;;;;;;;;;27.90;99.90;;;;;;8329837;28;19925;-73
2022/06/23 13:13:07;;;;;;;;;;;28.00;99.90;;;;;;8323316;28;19925;-73
2022/06/23 13:17:27;;;;;;;;;;;28.10;99.90;;;;;;8326067;28;19921;-73
2022/06/23 13:21:30;;;;;;;;;;;28.20;99.90;;;;;;8306110;28;20040;-73
2022/06/23 13:25:34;;;;;;;;;;;28.30;99.90;;;;;;8321937;28;19925;-73
2022/06/23 13:29:40;;;;;;;;;;;28.40;99.90;;;;;;8324855;28;19932;-73
2022/06/23 13:33:57;;;;;;;;;;;28.40;99.90;;;;;;8322994;28;24082;-73
2022/06/23 13:38:27;;;;;;;;;;;28.50;99.90;;;;;;8325711;28;19944;-73
2022/06/23 13:42:41;;;;;;;;;;;28.60;99.90;;;;;;8236355;28;19921;-73
2022/06/23 13:47:06;;;;;;;;;;;28.70;99.90;;;;;;8325326;28;20454;-73
2022/06/23 13:51:26;;;;;;;;;;;28.70;99.90;;;;;;8325343;28;25071;-73
2022/06/23 13:55:38;;;;;;;;;;;28.80;99.90;;;;;;8323707;28;19921;-73
2022/06/23 13:59:58;;;;;;;;;;;28.90;99.90;;;;;;8323676;28;19929;-73
2022/06/23 14:04:10;;;;;;;;;;;29.00;99.90;;;;;;8321772;28;19982;-73
2022/06/23 14:08:17;;;;;;;;;;;29.10;99.90;;;;;;8321960;28;25135;-73
2022/06/23 14:12:22;;;;;;;;;;;29.10;99.90;;;;;;8326383;28;19927;-73
2022/06/23 14:16:37;;;;;;;;;;;29.20;99.90;;;;;;8330229;28;19929;-73
2022/06/23 14:20:47;;;;;;;;;;;29.30;99.90;;;;;;8325390;28;20375;-73
2022/06/23 14:25:00;;;;;;;;;;;29.30;99.90;;;;;;8325070;28;20355;-73
2022/06/23 14:29:10;;;;;;;;;;;29.40;99.90;;;;;;8324007;28;19925;-73
2022/06/23 14:33:19;;;;;;;;;;;29.30;99.90;;;;;;8323326;28;19987;-73
2022/06/23 14:37:24;;;;;;;;;;;29.30;99.90;;;;;;8310653;28;19921;-73
2022/06/23 14:41:33;;;;;;;;;;;29.40;99.90;;;;;;8326713;28;19928;-73
2022/06/23 14:45:37;;;;;;;;;;;29.40;99.90;;;;;;8333554;28;19921;-73
2022/06/23 14:49:59;;;;;;;;;;;29.40;99.90;;;;;;8331245;28;19932;-73
2022/06/23 14:54:10;;;;;;;;;;;29.40;99.90;;;;;;8313669;28;20379;-73
2022/06/23 14:58:18;;;;;;;;;;;29.20;99.90;;;;;;8330483;28;19929;-73
2022/06/23 15:02:29;;;;;;;;;;;29.20;99.90;;;;;;8329286;28;19982;-73
2022/06/23 15:06:34;;;;;;;;;;;29.30;99.90;;;;;;8331185;28;24143;-73
2022/06/23 15:10:45;;;;;;;;;;;29.30;99.90;;;;;;8329109;28;19937;-73
2022/06/23 15:14:55;;;;;;;;;;;29.40;99.90;;;;;;8331173;28;19921;-73
2022/06/23 15:19:20;;;;;;;;;;;29.60;99.90;;;;;;8331995;28;19939;-73
2022/06/23 15:23:28;;;;;;;;;;;29.60;99.90;;;;;;8260633;28;19925;-73
2022/06/23 15:27:29;;;;;;;;;;;29.60;99.90;;;;;;8327450;28;19929;-73
2022/06/23 15:31:36;;;;;;;;;;;29.60;99.90;;;;;;8327258;28;19928;-73
2022/06/23 15:35:44;;;;;;;;;;;29.50;99.90;;;;;;8329265;28;19990;-73
2022/06/23 15:39:52;;;;;;;;;;;29.50;99.90;;;;;;8332435;28;25064;-73
2022/06/23 15:43:54;;;;;;;;;;;29.50;99.90;;;;;;8330347;28;20243;-73
2022/06/23 15:48:00;;;;;;;;;;;29.50;99.90;;;;;;8334777;28;19928;-73
2022/06/23 15:52:07;;;;;;;;;;;29.50;99.90;;;;;;8332134;28;19925;-73
2022/06/23 15:56:20;;;;;;;;;;;29.40;99.90;;;;;;8328836;28;24090;-73
2022/06/23 16:00:30;;;;;;;;;;;29.30;99.90;;;;;;8329227;28;19936;-73
2022/06/23 16:04:35;;;;;;;;;;;29.20;99.90;;;;;;8331687;28;19928;-73
2022/06/23 16:08:48;;;;;;;;;;;29.10;99.90;;;;;;8333876;28;19921;-73
2022/06/23 16:12:50;;;;;;;;;;;29.10;99.90;;;;;;8328401;28;19921;-74
2022/06/23 16:16:57;;;;;;;;;;;29.10;99.90;;;;;;8311654;28;19971;-73
2022/06/23 16:21:22;;;;;;;;;;;29.00;99.90;;;;;;8323260;28;25103;-73
2022/06/23 16:25:38;;;;;;;;;;;29.10;99.90;;;;;;8311164;28;19956;-73
2022/06/23 16:29:42;;;;;;;;;;;29.00;99.90;;;;;;8329201;28;19935;-73
2022/06/23 16:33:49;;;;;;;;;;;29.00;99.90;;;;;;8324424;28;20390;-73
2022/06/23 16:38:10;;;;;;;;;;;29.00;99.90;;;;;;8328202;28;19975;-73
2022/06/23 16:42:27;;;;;;;;;;;28.90;99.90;;;;;;8324294;28;19921;-73
2022/06/23 16:46:35;;;;;;;;;;;28.90;99.90;;;;;;8324261;28;19925;-73
2022/06/23 16:50:44;;;;;;;;;;;28.90;99.90;;;;;;8327963;28;19920;-73
2022/06/23 16:54:52;;;;;;;;;;;28.90;99.90;;;;;;8327081;28;19921;-73
2022/06/23 16:59:04;;;;;;;;;;;28.90;99.90;;;;;;8330271;28;20372;-73
2022/06/23 17:03:16;;;;;;;;;;;29.00;99.90;;;;;;8323193;28;19928;-73
2022/06/23 17:07:24;;;;;;;;;;;29.10;99.90;;;;;;8324993;28;19995;-73
2022/06/23 17:11:38;;;;;;;;;;;29.50;99.90;;;;;;8325879;28;19921;-73
2022/06/23 17:16:15;;;;;;;;;;;30.10;99.90;;;;;;8326476;28;19925;-73
2022/06/23 17:20:22;;;;;;;;;;;30.80;99.90;;;;;;8287724;28;20291;-73
2022/06/23 17:24:29;;;;;;;;;;;31.30;99.90;;;;;;8324414;28;20060;-73
2022/06/23 17:28:53;;;;;;;;;;;31.50;99.90;;;;;;8325690;28;20359;-74
2022/06/23 17:33:04;;;;;;;;;;;31.60;99.90;;;;;;8325290;28;19933;-73
2022/06/23 17:37:12;;;;;;;;;;;31.40;99.90;;;;;;8309284;28;25060;-73
2022/06/23 17:45:54;;;;;;;;;;;31.10;99.90;;;;;;8307993;28;19921;-73
2022/06/23 17:49:56;;;;;;;;;;;30.80;99.90;;;;;;8323895;28;19925;-73
2022/06/23 17:54:15;;;;;;;;;;;30.60;99.90;;;;;;8321759;28;19925;-73
2022/06/23 17:58:18;;;;;;;;;;;30.40;99.90;;;;;;8319788;28;19940;-73
2022/06/23 18:02:23;;;;;;;;;;;30.40;99.90;;;;;;8306053;28;19929;-73
2022/06/23 18:06:26;;;;;;;;;;;30.20;99.90;;;;;;8322494;28;20023;-74
2022/06/23 18:10:40;;;;;;;;;;;30.10;99.90;;;;;;8303765;28;19932;-73
2022/06/23 18:24:46;;;;;;;;;;;29.90;99.90;;;;;;8325398;28;19981;-73
2022/06/23 18:28:52;;;;;;;;;;;29.90;99.90;;;;;;8326165;28;25069;-73
2022/06/23 18:33:03;;;;;;;;;;;29.80;99.90;;;;;;8319958;28;20394;-73
2022/06/23 18:37:08;;;;;;;;;;;29.80;99.90;;;;;;8334646;28;19928;-74
2022/06/23 18:41:21;;;;;;;;;;;29.70;99.90;;;;;;8324824;28;19939;-73
2022/06/23 18:45:23;;;;;;;;;;;29.70;99.90;;;;;;8323933;28;19925;-73
2022/06/23 18:49:39;;;;;;;;;;;29.60;99.90;;;;;;8326212;28;19921;-73
2022/06/23 18:53:52;;;;;;;;;;;29.60;99.90;;;;;;8307717;28;19941;-73
2022/06/23 18:57:54;;;;;;;;;;;29.50;99.90;;;;;;8329775;28;25124;-73
2022/06/23 19:02:08;;;;;;;;;;;29.50;99.90;;;;;;8326410;28;19929;-73
2022/06/23 19:06:15;;;;;;;;;;;29.40;99.90;;;;;;8325416;28;20029;-73
2022/06/23 19:10:38;;;;;;;;;;;29.30;99.90;;;;;;8330615;28;19932;-73
2022/06/23 19:14:51;;;;;;;;;;;29.20;99.90;;;;;;8310864;28;19956;-73
2022/06/23 19:19:09;;;;;;;;;;;29.10;99.90;;;;;;8323234;28;19928;-73
2022/06/23 19:23:28;;;;;;;;;;;29.10;99.90;;;;;;8324185;28;20321;-74
2022/06/23 19:27:49;;;;;;;;;;;29.00;99.90;;;;;;8324873;28;19932;-73
2022/06/23 19:31:57;;;;;;;;;;;28.90;99.90;;;;;;8325793;28;19928;-73
2022/06/23 19:35:58;;;;;;;;;;;28.90;99.90;;;;;;8324098;28;20384;-73
2022/06/23 19:40:00;;;;;;;;;;;28.80;99.90;;;;;;8310981;28;19921;-73
2022/06/23 19:44:19;;;;;;;;;;;28.70;99.90;;;;;;8307361;28;19921;-73
2022/06/23 19:48:21;;;;;;;;;;;28.60;99.90;;;;;;8323115;28;19921;-74
2022/06/23 19:52:28;;;;;;;;;;;28.50;99.90;;;;;;8323612;28;20290;-73
2022/06/23 19:56:32;;;;;;;;;;;28.40;99.90;;;;;;8309318;28;20542;-73
2022/06/23 20:01:07;;;;;;;;;;;28.20;99.90;;;;;;8321218;28;19944;-74
2022/06/23 20:05:14;;;;;;;;;;;28.10;99.90;;;;;;8307456;28;19931;-73
2022/06/23 20:09:33;;;;;;;;;;;28.00;99.90;;;;;;8308961;28;19924;-74
2022/06/23 20:13:40;;;;;;;;;;;27.80;99.90;;;;;;8325320;28;19929;-74
2022/06/23 20:17:51;;;;;;;;;;;27.60;99.90;;;;;;8327446;28;20363;-73
2022/06/23 20:21:58;;;;;;;;;;;27.50;99.90;;;;;;8325181;28;19921;-74
2022/06/23 20:26:00;;;;;;;;;;;27.50;99.90;;;;;;8325422;28;20269;-74
2022/06/23 20:30:05;;;;;;;;;;;27.40;99.90;;;;;;8308738;28;19921;-74
2022/06/23 20:34:19;;;;;;;;;;;27.20;99.90;;;;;;8305845;28;20398;-74
2022/06/23 20:38:26;;;;;;;;;;;27.00;99.90;;;;;;8326767;28;19952;-74
2022/06/23 20:42:42;;;;;;;;;;;26.90;99.90;;;;;;8326385;28;20292;-73
2022/06/23 20:51:57;;;;;;;;;;;26.50;99.90;;;;;;8327597;28;20023;-73
2022/06/23 20:56:07;;;;;;;;;;;26.30;99.90;;;;;;8324833;28;19931;-74
2022/06/23 21:15:40;;;;;;;;;;;26.00;99.90;;;;;;8347354;28;19974;-74
2022/06/23 21:20:01;;;;;;;;;;;25.90;99.90;;;;;;8345618;28;19921;-73
2022/06/23 21:24:26;;;;;;;;;;;25.80;99.90;;;;;;8353490;28;19921;-73
2022/06/23 21:28:27;;;;;;;;;;;25.70;99.90;;;;;;8339399;28;19943;-73
2022/06/23 21:37:34;;;;;;;;;;;25.60;99.90;;;;;;8350174;28;20022;-73
2022/06/23 21:41:45;;;;;;;;;;;25.50;99.90;;;;;;8345879;28;19978;-73
2022/06/23 21:45:51;;;;;;;;;;;25.50;99.90;;;;;;8346778;28;19947;-74
2022/06/23 21:49:52;;;;;;;;;;;25.40;99.90;;;;;;8342672;28;20015;-73
2022/06/23 21:53:59;;;;;;;;;;;25.40;99.90;;;;;;8344946;28;20249;-73
2022/06/23 21:58:16;;;;;;;;;;;25.40;99.90;;;;;;8346675;28;19924;-73
2022/06/23 22:02:26;;;;;;;;;;;25.30;99.90;;;;;;8326946;28;21717;-73
2022/06/23 22:06:33;;;;;;;;;;;25.20;99.90;;;;;;8342628;28;19967;-74
2022/06/23 22:15:43;;;;;;;;;;;25.10;99.90;;;;;;8347215;28;19963;-73
2022/06/23 22:19:44;;;;;;;;;;;25.00;99.90;;;;;;8321954;28;20347;-73
2022/06/23 22:28:10;;;;;;;;;;;24.90;99.90;;;;;;8343418;28;19921;-73
2022/06/23 22:32:34;;;;;;;;;;;24.80;99.90;;;;;;8344600;28;20372;-73
2022/06/23 22:47:03;;;;;;;;;;;24.70;99.90;;;;;;8344914;28;19924;-73
2022/06/23 22:51:05;;;;;;;;;;;24.70;99.90;;;;;;8349186;28;19933;-74
2022/06/23 22:55:12;;;;;;;;;;;24.70;99.90;;;;;;8348927;28;19921;-73
2022/06/23 22:59:14;;;;;;;;;;;24.60;99.90;;;;;;8336780;28;19925;-73
2022/06/23 23:03:48;;;;;;;;;;;24.60;99.90;;;;;;8335068;28;20284;-73
2022/06/23 23:07:54;;;;;;;;;;;24.50;99.90;;;;;;8307333;28;20011;-73
2022/06/23 23:11:57;;;;;;;;;;;24.50;99.90;;;;;;8342370;28;19920;-73
2022/06/23 23:16:00;;;;;;;;;;;24.40;99.90;;;;;;8338695;28;20295;-73
2022/06/23 23:20:02;;;;;;;;;;;24.40;99.90;;;;;;8352346;28;20008;-73
2022/06/23 23:24:07;;;;;;;;;;;24.30;99.90;;;;;;8356180;28;19920;-73
2022/06/23 23:28:11;;;;;;;;;;;24.20;99.90;;;;;;8352487;28;19951;-73
2022/06/23 23:32:16;;;;;;;;;;;24.10;99.90;;;;;;8350109;28;19927;-73
2022/06/23 23:36:21;;;;;;;;;;;24.00;99.90;;;;;;8338153;28;19932;-73
2022/06/23 23:40:31;;;;;;;;;;;23.90;99.90;;;;;;8346522;28;19920;-73
2022/06/23 23:44:33;;;;;;;;;;;23.90;99.90;;;;;;8332927;28;20037;-73
2022/06/23 23:48:35;;;;;;;;;;;23.90;99.90;;;;;;8347213;28;19932;-73
2022/06/23 23:52:38;;;;;;;;;;;23.90;99.90;;;;;;8350471;28;20327;-73
2022/06/23 23:56:40;;;;;;;;;;;23.90;99.90;;;;;;8348567;28;19920;-74
